createdAt,value
2022-08-29T00:00:00.546Z,992.4646
2022-08-29T00:01:00.698Z,992.5668
2022-08-29T00:02:00.900Z,992.5169
2022-08-29T00:03:01.007Z,992.416
2022-08-29T00:04:01.277Z,992.5455
2022-08-29T00:05:00.313Z,992.3505
2022-08-29T00:06:00.480Z,992.798
2022-08-29T00:07:00.649Z,992.4083
2022-08-29T00:08:00.777Z,992.3505
2022-08-29T00:09:00.931Z,992.5668
2022-08-29T00:10:01.077Z,992.3786
2022-08-29T00:11:01.234Z,992.6099
2022-08-29T00:12:00.408Z,992.4582
2022-08-29T00:13:00.539Z,992.4655
2022-08-29T00:14:00.683Z,992.509
2022-08-29T00:15:00.837Z,992.3788
2022-08-29T00:16:00.985Z,992.6246
2022-08-29T00:17:01.292Z,992.509
2022-08-29T00:18:00.308Z,992.5668
2022-08-29T00:19:00.453Z,992.7189
2022-08-29T00:20:00.599Z,992.5455
2022-08-29T00:21:00.762Z,992.495
2022-08-29T00:22:00.920Z,992.7189
2022-08-29T00:23:01.080Z,992.4591
2022-08-29T00:24:01.211Z,992.7189
2022-08-29T00:25:00.356Z,992.5528
2022-08-29T00:26:00.509Z,992.43
2022-08-29T00:27:00.667Z,992.6543
2022-08-29T00:28:00.837Z,992.6471
2022-08-29T00:29:00.975Z,992.4748
2022-08-29T00:30:01.106Z,992.5831
2022-08-29T00:31:00.255Z,992.5982
2022-08-29T00:32:00.445Z,992.5982
2022-08-29T00:33:00.602Z,992.4608
2022-08-29T00:34:00.703Z,992.4826
2022-08-29T00:35:00.851Z,992.5121
2022-08-29T00:36:01.004Z,992.3973
2022-08-29T00:37:01.157Z,992.5922
2022-08-29T00:38:00.329Z,992.5994
2022-08-29T00:39:00.449Z,992.5204
2022-08-29T00:40:00.661Z,992.6147
2022-08-29T00:41:00.783Z,992.5501
2022-08-29T00:42:00.909Z,992.5429
2022-08-29T00:43:01.064Z,992.6006
2022-08-29T00:44:01.215Z,992.5361
2022-08-29T00:45:00.362Z,992.572
2022-08-29T00:46:00.685Z,992.4571
2022-08-29T00:47:00.728Z,992.6015
2022-08-29T00:48:00.823Z,992.5656
2022-08-29T00:49:00.967Z,992.5516
2022-08-29T00:50:01.123Z,992.5881
2022-08-29T00:51:00.278Z,992.4945
2022-08-29T00:52:00.419Z,992.6242
2022-08-29T00:53:00.572Z,992.465
2022-08-29T00:54:00.731Z,992.4509
2022-08-29T00:55:00.910Z,992.4798
2022-08-29T00:56:01.033Z,992.553
2022-08-29T00:57:01.189Z,992.6178
2022-08-29T00:58:00.326Z,992.5751
2022-08-29T00:59:00.487Z,992.5174
2022-08-29T01:00:00.657Z,992.4166
2022-08-29T01:01:00.856Z,992.6116
2022-08-29T01:02:01.013Z,992.525
2022-08-29T01:03:01.083Z,992.6617
2022-08-29T01:04:01.240Z,992.5615
2022-08-29T01:05:00.403Z,992.5332
2022-08-29T01:06:00.529Z,992.4906
2022-08-29T01:07:00.683Z,992.4397
2022-08-29T01:08:00.838Z,992.4469
2022-08-29T01:09:01.000Z,992.5114
2022-08-29T01:10:01.154Z,992.5691
2022-08-29T01:11:00.294Z,992.5326
2022-08-29T01:12:00.450Z,992.4821
2022-08-29T01:13:00.601Z,992.6406
2022-08-29T01:14:00.746Z,992.6474
2022-08-29T01:15:00.920Z,992.4096
2022-08-29T01:16:01.095Z,992.4308
2022-08-29T01:17:01.216Z,992.5398
2022-08-29T01:18:00.350Z,992.591
2022-08-29T01:19:00.494Z,992.4537
2022-08-29T01:20:00.652Z,992.4469
2022-08-29T01:21:00.807Z,992.5903
2022-08-29T01:22:00.969Z,992.5398
2022-08-29T01:23:01.115Z,992.4248
2022-08-29T01:24:01.245Z,992.5038
2022-08-29T01:25:00.394Z,992.5541
2022-08-29T01:26:00.551Z,992.5903
2022-08-29T01:27:00.704Z,992.5475
2022-08-29T01:28:00.881Z,992.5763
2022-08-29T01:29:01.011Z,992.7711
2022-08-29T01:30:01.150Z,992.4609
2022-08-29T01:31:00.324Z,992.5691
2022-08-29T01:32:00.485Z,992.729
2022-08-29T01:33:00.641Z,992.6439
2022-08-29T01:34:00.769Z,992.7733
2022-08-29T01:35:00.919Z,992.7156
2022-08-29T01:36:01.079Z,992.6361
2022-08-29T01:37:01.224Z,992.6002
2022-08-29T01:38:00.391Z,992.5714
2022-08-29T01:39:00.536Z,992.729
2022-08-29T01:40:00.758Z,992.7585
2022-08-29T01:41:00.821Z,992.8156
2022-08-29T01:42:00.974Z,992.8444
2022-08-29T01:43:01.124Z,992.729
2022-08-29T01:44:00.263Z,992.729
2022-08-29T01:45:00.434Z,992.6002
2022-08-29T01:46:00.615Z,992.5862
2022-08-29T01:47:03.124Z,992.5432
2022-08-29T01:48:03.441Z,992.6874
2022-08-29T01:49:01.002Z,992.7092
2022-08-29T01:50:01.186Z,992.5364
2022-08-29T01:51:00.307Z,992.7162
2022-08-29T01:52:00.471Z,992.7016
2022-08-29T01:53:00.610Z,992.6151
2022-08-29T01:54:00.793Z,992.5075
2022-08-29T01:55:00.952Z,992.6305
2022-08-29T01:56:01.072Z,992.544
2022-08-29T01:57:01.215Z,992.6017
2022-08-29T01:58:00.376Z,992.5947
2022-08-29T01:59:00.535Z,992.703
2022-08-29T02:00:00.703Z,992.7974
2022-08-29T02:01:00.875Z,992.5166
2022-08-29T02:02:01.079Z,992.5244
2022-08-29T02:03:01.118Z,992.6686
2022-08-29T02:04:00.271Z,992.5681
2022-08-29T02:05:00.434Z,992.5899
2022-08-29T02:06:00.598Z,992.4822
2022-08-29T02:07:00.733Z,992.6124
2022-08-29T02:08:00.890Z,992.6622
2022-08-29T02:09:01.049Z,992.6052
2022-08-29T02:10:01.202Z,992.4831
2022-08-29T02:11:00.384Z,992.5626
2022-08-29T02:12:00.505Z,992.5553
2022-08-29T02:13:00.660Z,992.6132
2022-08-29T02:14:00.804Z,992.6997
2022-08-29T02:15:00.950Z,992.642
2022-08-29T02:16:01.172Z,992.7861
2022-08-29T02:17:00.260Z,992.7285
2022-08-29T02:18:00.416Z,992.7573
2022-08-29T02:19:00.561Z,992.7355
2022-08-29T02:20:00.715Z,992.7283
2022-08-29T02:21:00.886Z,992.6997
2022-08-29T02:22:01.012Z,992.7573
2022-08-29T02:23:01.167Z,992.815
2022-08-29T02:24:11.311Z,992.6997
2022-08-29T02:25:00.464Z,992.8726
2022-08-29T02:26:00.616Z,992.7579
2022-08-29T02:27:00.784Z,992.7081
2022-08-29T02:28:00.913Z,992.6433
2022-08-29T02:29:01.065Z,992.6721
2022-08-29T02:30:01.214Z,992.7299
2022-08-29T02:31:00.421Z,992.7011
2022-08-29T02:32:00.543Z,992.6146
2022-08-29T02:33:00.672Z,992.7087
2022-08-29T02:34:00.819Z,992.6293
2022-08-29T02:35:00.972Z,992.7017
2022-08-29T02:36:01.294Z,992.8824
2022-08-29T02:37:00.352Z,992.8252
2022-08-29T02:38:00.474Z,992.7605
2022-08-29T02:39:00.607Z,992.8618
2022-08-29T02:40:00.812Z,992.8478
2022-08-29T02:41:00.907Z,992.7683
2022-08-29T02:42:01.079Z,992.8478
2022-08-29T02:43:01.226Z,992.6183
2022-08-29T02:44:00.365Z,992.7193
2022-08-29T02:45:00.543Z,992.8852
2022-08-29T02:46:00.664Z,992.8136
2022-08-29T02:47:00.883Z,992.7918
2022-08-29T02:48:00.973Z,992.954
2022-08-29T02:49:01.642Z,992.954
2022-08-29T02:50:00.300Z,992.911
2022-08-29T02:51:00.433Z,992.925
2022-08-29T02:52:00.579Z,992.8964
2022-08-29T02:53:00.737Z,992.954
2022-08-29T02:54:00.881Z,992.9764
2022-08-29T02:55:01.049Z,992.9328
2022-08-29T02:56:01.185Z,992.8276
2022-08-29T02:57:00.343Z,992.8782
2022-08-29T02:58:00.479Z,992.8564
2022-08-29T02:59:00.646Z,992.7918
2022-08-29T03:00:00.812Z,992.9263
2022-08-29T03:01:01.061Z,992.9771
2022-08-29T03:02:01.189Z,992.9213
2022-08-29T03:03:01.290Z,992.7304
2022-08-29T03:04:00.415Z,992.781
2022-08-29T03:05:00.570Z,992.8815
2022-08-29T03:06:00.703Z,992.9213
2022-08-29T03:07:00.869Z,992.9283
2022-08-29T03:08:01.016Z,992.8445
2022-08-29T03:09:01.161Z,992.8737
2022-08-29T03:10:00.317Z,992.8519
2022-08-29T03:11:00.471Z,992.8925
2022-08-29T03:12:00.608Z,993.124
2022-08-29T03:13:00.757Z,992.9577
2022-08-29T03:14:00.905Z,992.8239
2022-08-29T03:15:01.062Z,992.9079
2022-08-29T03:16:01.314Z,992.767
2022-08-29T03:17:00.350Z,992.8183
2022-08-29T03:18:00.500Z,992.711
2022-08-29T03:19:00.681Z,992.8809
2022-08-29T03:20:00.827Z,992.8121
2022-08-29T03:21:01.005Z,992.7834
2022-08-29T03:22:01.137Z,993.0911
2022-08-29T03:23:00.280Z,992.7692
2022-08-29T03:24:00.446Z,992.6894
2022-08-29T03:25:00.594Z,992.7546
2022-08-29T03:26:00.746Z,992.7758
2022-08-29T03:27:00.912Z,992.8541
2022-08-29T03:28:01.033Z,992.7888
2022-08-29T03:29:01.192Z,992.7088
2022-08-29T03:30:00.344Z,992.6512
2022-08-29T03:31:00.514Z,992.7664
2022-08-29T03:32:00.671Z,992.781
2022-08-29T03:33:00.806Z,992.7664
2022-08-29T03:34:00.942Z,992.6736
2022-08-29T03:35:01.095Z,992.8681
2022-08-29T03:36:01.253Z,992.7888
2022-08-29T03:37:00.417Z,992.732
2022-08-29T03:38:00.546Z,992.7536
2022-08-29T03:39:00.718Z,992.704
2022-08-29T03:40:00.880Z,992.7834
2022-08-29T03:41:00.999Z,992.7692
2022-08-29T03:42:01.159Z,992.7334
2022-08-29T03:43:00.292Z,993.0553
2022-08-29T03:44:00.440Z,992.8121
2022-08-29T03:45:00.601Z,992.6541
2022-08-29T03:46:00.733Z,992.7048
2022-08-29T03:47:00.985Z,992.9108
2022-08-29T03:48:01.042Z,992.8898
2022-08-29T03:49:01.203Z,992.6493
2022-08-29T03:50:00.344Z,992.8583
2022-08-29T03:51:00.499Z,992.7952
2022-08-29T03:52:00.698Z,992.875
2022-08-29T03:53:00.810Z,992.9795
2022-08-29T03:54:00.953Z,992.8449
2022-08-29T03:55:01.101Z,992.8225
2022-08-29T03:56:01.260Z,992.8077
2022-08-29T03:57:00.412Z,992.8365
2022-08-29T03:58:00.543Z,992.9276
2022-08-29T03:59:00.695Z,992.7081
2022-08-29T04:00:00.867Z,992.9282
2022-08-29T04:01:00.993Z,992.8924
2022-08-29T04:02:01.198Z,993.0662
2022-08-29T04:03:00.410Z,992.8161
2022-08-29T04:04:00.442Z,992.9212
2022-08-29T04:05:03.512Z,992.8161
2022-08-29T04:06:00.772Z,992.9499
2022-08-29T04:07:00.885Z,993.0452
2022-08-29T04:08:01.032Z,992.8744
2022-08-29T04:09:01.187Z,992.8674
2022-08-29T04:10:00.340Z,992.9295
2022-08-29T04:11:00.505Z,992.8752
2022-08-29T04:12:00.645Z,992.9373
2022-08-29T04:13:00.795Z,992.8473
2022-08-29T04:14:00.941Z,992.9305
2022-08-29T04:15:01.091Z,993.0755
2022-08-29T04:16:01.372Z,992.869
2022-08-29T04:17:00.391Z,992.9227
2022-08-29T04:18:00.556Z,992.9227
2022-08-29T04:19:00.697Z,993.009
2022-08-29T04:20:00.845Z,992.883
2022-08-29T04:21:01.034Z,993.119
2022-08-29T04:22:01.155Z,993.0032
2022-08-29T04:23:00.302Z,992.9239
2022-08-29T04:24:00.444Z,992.9373
2022-08-29T04:25:00.628Z,993.0755
2022-08-29T04:26:19.152Z,992.974
2022-08-29T04:27:00.913Z,993.1769
2022-08-29T04:28:01.054Z,993.1124
2022-08-29T04:29:01.216Z,993.0409
2022-08-29T04:30:00.390Z,993.1924
2022-08-29T04:31:00.565Z,993.3051
2022-08-29T04:32:00.658Z,993.0053
2022-08-29T04:33:00.806Z,993.2007
2022-08-29T04:34:00.957Z,993.1578
2022-08-29T04:35:01.145Z,993.1578
2022-08-29T04:36:00.258Z,993.2007
2022-08-29T04:37:00.410Z,993.2007
2022-08-29T04:38:00.559Z,993.2364
2022-08-29T04:39:00.709Z,993.2364
2022-08-29T04:40:00.960Z,993.2007
2022-08-29T04:41:01.007Z,993.2364
2022-08-29T04:42:01.166Z,993.2364
2022-08-29T04:43:00.317Z,993.2364
2022-08-29T04:44:00.470Z,993.3051
2022-08-29T04:45:00.641Z,993.2979
2022-08-29T04:46:00.849Z,993.3051
2022-08-29T04:47:00.916Z,993.4123
2022-08-29T04:48:03.686Z,993.4123
2022-08-29T04:49:04.167Z,993.4123
2022-08-29T04:50:00.393Z,993.5124
2022-08-29T04:51:00.537Z,993.3326
2022-08-29T04:52:00.684Z,993.5625
2022-08-29T04:53:00.837Z,993.3326
2022-08-29T04:54:00.986Z,993.1419
2022-08-29T04:55:01.146Z,993.5124
2022-08-29T04:56:00.282Z,993.1707
2022-08-29T04:57:00.432Z,993.5124
2022-08-29T04:58:01.502Z,993.2281
2022-08-29T04:59:00.729Z,993.5124
2022-08-29T05:00:00.904Z,993.1559
2022-08-29T05:01:01.031Z,993.1988
2022-08-29T05:02:01.218Z,993.2751
2022-08-29T05:03:00.444Z,993.2631
2022-08-29T05:04:00.497Z,993.3394
2022-08-29T05:05:00.652Z,993.4828
2022-08-29T05:06:00.787Z,993.3965
2022-08-29T05:07:00.939Z,993.234
2022-08-29T05:08:01.093Z,993.241
2022-08-29T05:09:01.242Z,993.4105
2022-08-29T05:10:00.406Z,993.2955
2022-08-29T05:11:00.566Z,993.2053
2022-08-29T05:12:00.687Z,993.2815
2022-08-29T05:13:00.831Z,993.3748
2022-08-29T05:14:00.982Z,993.2668
2022-08-29T05:15:01.134Z,993.2668
2022-08-29T05:16:00.306Z,993.3598
2022-08-29T05:17:00.456Z,993.4243
2022-08-29T05:18:00.593Z,993.3598
2022-08-29T05:19:00.748Z,993.4455
2022-08-29T05:20:00.899Z,993.5031
2022-08-29T05:21:01.049Z,993.4596
2022-08-29T05:22:01.228Z,993.3873
2022-08-29T05:23:00.358Z,993.4013
2022-08-29T05:24:00.506Z,993.3438
2022-08-29T05:25:00.655Z,993.3718
2022-08-29T05:26:00.810Z,993.3718
2022-08-29T05:27:00.982Z,993.3643
2022-08-29T05:28:01.118Z,993.5439
2022-08-29T05:29:00.255Z,993.5363
2022-08-29T05:30:00.413Z,993.5716
2022-08-29T05:31:00.599Z,993.3989
2022-08-29T05:32:00.722Z,993.3772
2022-08-29T05:33:00.876Z,993.6214
2022-08-29T05:34:00.999Z,993.5273
2022-08-29T05:35:01.163Z,993.5058
2022-08-29T05:36:00.295Z,993.5052
2022-08-29T05:37:00.443Z,993.5982
2022-08-29T05:38:00.625Z,993.4903
2022-08-29T05:39:00.763Z,993.6335
2022-08-29T05:40:00.935Z,993.5464
2022-08-29T05:41:01.062Z,993.6252
2022-08-29T05:42:01.218Z,993.7399
2022-08-29T05:43:00.366Z,993.7471
2022-08-29T05:44:00.506Z,993.4732
2022-08-29T05:45:00.656Z,993.516
2022-08-29T05:46:00.840Z,993.6019
2022-08-29T05:47:00.957Z,993.5155
2022-08-29T05:48:01.126Z,993.5155
2022-08-29T05:49:00.281Z,993.5799
2022-08-29T05:50:00.448Z,993.5799
2022-08-29T05:51:00.604Z,993.6228
2022-08-29T05:52:00.779Z,993.5
2022-08-29T05:53:00.904Z,993.6433
2022-08-29T05:54:01.046Z,993.5639
2022-08-29T05:55:01.217Z,993.6356
2022-08-29T05:56:00.350Z,993.6349
2022-08-29T05:57:00.502Z,993.6486
2022-08-29T05:58:00.653Z,993.5326
2022-08-29T05:59:00.813Z,993.6331
2022-08-29T06:00:00.970Z,993.7185
2022-08-29T06:01:01.105Z,993.6607
2022-08-29T06:03:00.496Z,993.7031
2022-08-29T06:04:00.759Z,993.6667
2022-08-29T06:05:00.692Z,993.5654
2022-08-29T06:06:00.814Z,993.8819
2022-08-29T06:07:00.968Z,993.6943
2022-08-29T06:08:01.121Z,993.6218
2022-08-29T06:09:00.278Z,993.6577
2022-08-29T06:10:00.447Z,993.6359
2022-08-29T06:11:00.592Z,993.5346
2022-08-29T06:12:00.740Z,993.7289
2022-08-29T06:13:00.872Z,993.5845
2022-08-29T06:14:01.032Z,993.5911
2022-08-29T06:15:01.183Z,993.5045
2022-08-29T06:16:00.404Z,993.4392
2022-08-29T06:17:00.469Z,993.5469
2022-08-29T06:18:00.632Z,993.5898
2022-08-29T06:19:00.779Z,993.6405
2022-08-29T06:20:00.931Z,993.5539
2022-08-29T06:21:01.100Z,993.7052
2022-08-29T06:22:01.227Z,993.5756
2022-08-29T06:23:00.372Z,993.6187
2022-08-29T06:24:00.531Z,993.7052
2022-08-29T06:25:00.674Z,993.6547
2022-08-29T06:26:00.840Z,993.6975
2022-08-29T06:27:00.998Z,993.6468
2022-08-29T06:28:01.115Z,993.8413
2022-08-29T06:29:00.276Z,993.6681
2022-08-29T06:30:02.078Z,993.6317
2022-08-29T06:31:00.622Z,993.8835
2022-08-29T06:32:00.744Z,993.7535
2022-08-29T06:33:00.869Z,993.7169
2022-08-29T06:34:01.020Z,993.8612
2022-08-29T06:35:01.168Z,993.8535
2022-08-29T06:36:00.332Z,993.738
2022-08-29T06:37:00.500Z,993.7741
2022-08-29T06:38:00.659Z,993.8098
2022-08-29T06:39:00.777Z,993.7663
2022-08-29T06:40:00.953Z,993.8098
2022-08-29T06:41:01.080Z,993.6875
2022-08-29T06:42:01.231Z,993.817
2022-08-29T06:43:00.425Z,993.6438
2022-08-29T06:44:00.539Z,993.622
2022-08-29T06:45:00.705Z,993.8017
2022-08-29T06:46:00.896Z,993.7729
2022-08-29T06:47:00.987Z,993.8884
2022-08-29T06:48:01.130Z,993.9166
2022-08-29T06:49:00.285Z,993.9166
2022-08-29T06:50:00.442Z,993.9166
2022-08-29T06:51:00.605Z,993.9166
2022-08-29T06:52:00.763Z,993.7069
2022-08-29T06:53:14.777Z,993.6489
2022-08-29T06:54:01.045Z,993.7925
2022-08-29T06:55:01.190Z,993.6762
2022-08-29T06:56:00.358Z,993.8848
2022-08-29T06:57:00.527Z,993.7615
2022-08-29T06:58:00.667Z,993.8693
2022-08-29T06:59:00.810Z,993.7102
2022-08-29T07:00:00.957Z,993.7462
2022-08-29T07:01:01.264Z,993.7744
2022-08-29T07:02:00.326Z,993.8317
2022-08-29T07:03:00.451Z,993.9036
2022-08-29T07:04:00.575Z,993.8601
2022-08-29T07:05:00.755Z,993.7369
2022-08-29T07:06:00.881Z,993.8157
2022-08-29T07:07:01.040Z,993.5916
2022-08-29T07:08:01.198Z,993.8081
2022-08-29T07:09:00.343Z,993.8873
2022-08-29T07:10:00.509Z,993.8147
2022-08-29T07:11:00.646Z,993.7129
2022-08-29T07:12:00.803Z,993.9946
2022-08-29T07:13:00.958Z,993.6468
2022-08-29T07:14:01.108Z,993.5812
2022-08-29T07:15:00.288Z,993.6752
2022-08-29T07:16:00.526Z,993.638
2022-08-29T07:17:00.573Z,993.7029
2022-08-29T07:18:00.726Z,993.7892
2022-08-29T07:19:00.866Z,993.7306
2022-08-29T07:20:01.036Z,993.6503
2022-08-29T07:21:01.191Z,993.6574
2022-08-29T07:22:00.314Z,993.8231
2022-08-29T07:23:00.477Z,993.8155
2022-08-29T07:24:00.625Z,993.7866
2022-08-29T07:25:00.774Z,993.8586
2022-08-29T07:26:00.941Z,993.7718
2022-08-29T07:27:01.079Z,993.7428
2022-08-29T07:28:01.231Z,993.7139
2022-08-29T07:29:00.376Z,993.699
2022-08-29T07:30:00.538Z,993.627
2022-08-29T07:31:00.757Z,993.6192
2022-08-29T07:32:00.834Z,993.6696
2022-08-29T07:33:00.980Z,993.6837
2022-08-29T07:34:02.848Z,993.8133
2022-08-29T07:35:00.288Z,993.8133
2022-08-29T07:36:01.209Z,993.5739
2022-08-29T07:37:00.587Z,993.6743
2022-08-29T07:38:00.742Z,993.6159
2022-08-29T07:39:00.886Z,993.6081
2022-08-29T07:40:01.151Z,993.753
2022-08-29T07:41:01.217Z,993.7811
2022-08-29T07:42:00.342Z,993.6717
2022-08-29T07:43:00.505Z,993.6349
2022-08-29T07:44:00.653Z,993.6853
2022-08-29T07:45:00.807Z,993.6049
2022-08-29T07:46:00.998Z,993.6843
2022-08-29T07:47:01.099Z,993.5824
2022-08-29T07:48:01.245Z,993.6977
2022-08-29T07:49:00.406Z,993.6392
2022-08-29T07:50:00.569Z,993.7546
2022-08-29T07:51:00.738Z,993.9059
2022-08-29T07:52:00.848Z,993.8769
2022-08-29T07:53:01.000Z,993.7816
2022-08-29T07:54:01.414Z,993.7952
2022-08-29T07:55:00.287Z,993.6786
2022-08-29T07:56:00.438Z,993.584
2022-08-29T07:57:00.580Z,993.7503
2022-08-29T07:58:00.746Z,993.6993
2022-08-29T07:59:00.876Z,993.6846
2022-08-29T08:00:01.028Z,993.713
2022-08-29T08:01:01.280Z,993.7484
2022-08-29T08:02:00.438Z,993.7193
2022-08-29T08:03:00.544Z,993.7252
2022-08-29T08:04:00.641Z,993.7388
2022-08-29T08:05:00.807Z,993.7821
2022-08-29T08:06:00.939Z,993.9124
2022-08-29T08:07:01.086Z,993.701
2022-08-29T08:08:08.684Z,993.7146
2022-08-29T08:09:00.389Z,993.7293
2022-08-29T08:10:00.563Z,993.6919
2022-08-29T08:11:00.683Z,993.7262
2022-08-29T08:12:03.877Z,993.7902
2022-08-29T08:13:00.994Z,993.8693
2022-08-29T08:14:01.144Z,993.7672
2022-08-29T08:15:00.332Z,993.8182
2022-08-29T08:16:00.450Z,993.7085
2022-08-29T08:17:00.626Z,993.7881
2022-08-29T08:18:00.762Z,993.7803
2022-08-29T08:19:00.915Z,993.9612
2022-08-29T08:20:01.083Z,993.9612
2022-08-29T08:21:01.245Z,993.7271
2022-08-29T08:22:00.369Z,993.7765
2022-08-29T08:23:00.521Z,993.7167
2022-08-29T08:24:00.663Z,993.8169
2022-08-29T08:25:00.807Z,993.8162
2022-08-29T08:26:00.986Z,993.975
2022-08-29T08:27:01.127Z,993.8288
2022-08-29T08:28:00.273Z,993.7628
2022-08-29T08:29:00.429Z,993.7395
2022-08-29T08:30:00.585Z,993.79
2022-08-29T08:31:05.728Z,993.7383
2022-08-29T08:32:00.889Z,993.8971
2022-08-29T08:33:01.038Z,993.8965
2022-08-29T08:34:01.204Z,993.7936
2022-08-29T08:35:00.352Z,993.9466
2022-08-29T08:36:00.510Z,993.8138
2022-08-29T08:37:00.681Z,993.7981
2022-08-29T08:38:00.792Z,993.819
2022-08-29T08:39:00.950Z,993.8047
2022-08-29T08:40:01.151Z,993.7464
2022-08-29T08:41:01.227Z,993.8322
2022-08-29T08:42:00.398Z,993.8014
2022-08-29T08:43:00.538Z,993.8306
2022-08-29T08:44:00.691Z,993.7215
2022-08-29T08:45:00.830Z,993.889
2022-08-29T08:46:01.018Z,993.7488
2022-08-29T08:47:01.123Z,993.7034
2022-08-29T08:48:00.280Z,993.9214
2022-08-29T08:49:00.463Z,994.0014
2022-08-29T08:50:00.588Z,993.7303
2022-08-29T08:51:00.740Z,993.7881
2022-08-29T08:52:00.880Z,993.7795
2022-08-29T08:53:01.038Z,993.9104
2022-08-29T08:54:01.214Z,993.9473
2022-08-29T08:55:00.335Z,993.7642
2022-08-29T08:56:00.490Z,993.689
2022-08-29T08:57:02.250Z,994.01
2022-08-29T08:58:00.788Z,993.9515
2022-08-29T08:59:00.956Z,993.9515
2022-08-29T09:00:01.130Z,993.8053
2022-08-29T09:01:00.289Z,993.7175
2022-08-29T09:02:06.718Z,993.9515
2022-08-29T09:03:00.577Z,993.6824
2022-08-29T09:04:00.727Z,993.806
2022-08-29T09:05:00.908Z,993.8561
2022-08-29T09:06:01.037Z,993.8626
2022-08-29T09:07:01.202Z,993.8119
2022-08-29T09:08:00.347Z,993.8345
2022-08-29T09:09:00.511Z,993.7468
2022-08-29T09:10:00.664Z,993.7893
2022-08-29T09:11:00.811Z,993.8621
2022-08-29T09:12:00.954Z,993.9275
2022-08-29T09:13:01.103Z,993.6922
2022-08-29T09:14:01.266Z,993.6976
2022-08-29T09:15:00.442Z,993.7628
2022-08-29T09:16:00.548Z,993.7256
2022-08-29T09:17:00.711Z,993.681
2022-08-29T09:18:00.865Z,993.681
2022-08-29T09:19:01.018Z,993.8499
2022-08-29T09:20:01.180Z,993.813
2022-08-29T09:21:03.927Z,993.6301
2022-08-29T09:22:00.469Z,993.7474
2022-08-29T09:23:00.626Z,993.6449
2022-08-29T09:24:00.787Z,993.7256
2022-08-29T09:25:00.941Z,993.6324
2022-08-29T09:26:01.102Z,993.6983
2022-08-29T09:27:01.233Z,993.6683
2022-08-29T09:28:00.380Z,993.7561
2022-08-29T09:29:00.517Z,993.7561
2022-08-29T09:30:00.687Z,993.7931
2022-08-29T09:31:00.862Z,993.6474
2022-08-29T09:32:01.064Z,993.6922
2022-08-29T09:33:01.144Z,993.6844
2022-08-29T09:34:00.301Z,993.611
2022-08-29T09:35:09.323Z,993.6021
2022-08-29T09:36:00.622Z,993.6739
2022-08-29T09:37:00.757Z,993.6717
2022-08-29T09:38:00.931Z,993.8608
2022-08-29T09:39:01.056Z,993.685
2022-08-29T09:40:01.262Z,993.941
2022-08-29T09:41:00.486Z,993.6108
2022-08-29T09:42:00.507Z,993.567
2022-08-29T09:43:00.675Z,993.6623
2022-08-29T09:44:00.810Z,993.6909
2022-08-29T09:45:00.961Z,993.7345
2022-08-29T09:46:01.157Z,993.6394
2022-08-29T09:47:00.264Z,993.6101
2022-08-29T09:48:00.434Z,993.6903
2022-08-29T09:49:00.575Z,993.5731
2022-08-29T09:50:00.718Z,993.5509
2022-08-29T09:51:00.870Z,993.4996
2022-08-29T09:52:01.011Z,993.6095
2022-08-29T09:53:01.190Z,993.5575
2022-08-29T09:54:00.314Z,993.6898
2022-08-29T09:55:00.602Z,993.6389
2022-08-29T09:56:00.636Z,993.5938
2022-08-29T09:57:00.800Z,993.8135
2022-08-29T09:58:00.955Z,993.6024
2022-08-29T09:59:01.099Z,993.5
2022-08-29T10:00:01.242Z,993.6024
2022-08-29T10:01:00.440Z,993.5575
2022-08-29T10:02:00.643Z,993.6519
2022-08-29T10:03:00.720Z,993.5849
2022-08-29T10:04:00.849Z,993.665
2022-08-29T10:05:00.992Z,993.6063
2022-08-29T10:06:01.140Z,993.6356
2022-08-29T10:07:00.284Z,993.6435
2022-08-29T10:08:00.454Z,993.7027
2022-08-29T10:09:00.592Z,993.8278
2022-08-29T10:10:00.755Z,993.7482
2022-08-29T10:11:00.902Z,993.7334
2022-08-29T10:12:01.046Z,993.7268
2022-08-29T10:13:01.211Z,993.7783
2022-08-29T10:14:00.325Z,993.7711
2022-08-29T10:15:00.524Z,993.6246
2022-08-29T10:16:00.626Z,993.7697
2022-08-29T10:17:00.846Z,993.6818
2022-08-29T10:18:00.935Z,993.6898
2022-08-29T10:19:01.082Z,993.6167
2022-08-29T10:20:01.214Z,993.7105
2022-08-29T10:21:00.366Z,993.6376
2022-08-29T10:22:00.519Z,993.6226
2022-08-29T10:23:00.678Z,993.6219
2022-08-29T10:24:00.859Z,993.6219
2022-08-29T10:25:00.995Z,993.607
2022-08-29T10:26:01.137Z,993.5203
2022-08-29T10:27:00.292Z,993.6605
2022-08-29T10:28:00.439Z,993.6167
2022-08-29T10:29:00.607Z,993.5359
2022-08-29T10:30:00.739Z,993.6532
2022-08-29T10:31:00.895Z,993.5725
2022-08-29T10:32:01.085Z,993.6169
2022-08-29T10:33:01.206Z,993.6616
2022-08-29T10:34:00.367Z,993.6473
2022-08-29T10:35:00.518Z,993.6108
2022-08-29T10:36:00.648Z,993.6903
2022-08-29T10:37:00.799Z,993.6465
2022-08-29T10:38:00.956Z,993.581
2022-08-29T10:39:01.116Z,993.6605
2022-08-29T10:40:01.325Z,993.7104
2022-08-29T10:41:00.405Z,993.7392
2022-08-29T10:42:00.565Z,993.7835
2022-08-29T10:43:00.712Z,993.717
2022-08-29T10:44:00.874Z,993.6943
2022-08-29T10:45:01.004Z,993.7901
2022-08-29T10:46:01.261Z,993.7608
2022-08-29T10:47:00.312Z,993.6943
2022-08-29T10:48:00.464Z,993.5191
2022-08-29T10:49:00.634Z,993.695
2022-08-29T10:50:00.789Z,993.5777
2022-08-29T10:51:00.956Z,993.5782
2022-08-29T10:52:01.094Z,993.7256
2022-08-29T10:53:01.243Z,993.6955
2022-08-29T10:54:00.414Z,993.7021
2022-08-29T10:55:00.576Z,993.6866
2022-08-29T10:56:05.876Z,993.6135
2022-08-29T10:57:00.849Z,993.54
2022-08-29T10:58:00.996Z,993.517
2022-08-29T10:59:01.138Z,993.5464
2022-08-29T11:00:00.287Z,993.5093
2022-08-29T11:01:02.428Z,993.4434
2022-08-29T11:02:00.599Z,993.4872
2022-08-29T11:03:00.737Z,993.5675
2022-08-29T11:04:00.930Z,993.3762
2022-08-29T11:05:01.047Z,993.4349
2022-08-29T11:06:01.210Z,993.4206
2022-08-29T11:07:00.343Z,993.4507
2022-08-29T11:08:00.484Z,993.605
2022-08-29T11:09:00.634Z,993.577
2022-08-29T11:10:00.807Z,993.489
2022-08-29T11:11:01.625Z,993.577
2022-08-29T11:12:01.089Z,993.6063
2022-08-29T11:13:01.238Z,993.577
2022-08-29T11:14:05.428Z,993.577
2022-08-29T11:15:00.546Z,993.474
2022-08-29T11:16:00.741Z,993.4883
2022-08-29T11:17:03.171Z,993.4883
2022-08-29T11:18:01.012Z,993.3704
2022-08-29T11:19:01.158Z,993.48
2022-08-29T11:20:00.300Z,993.3255
2022-08-29T11:21:00.463Z,993.4417
2022-08-29T11:22:00.613Z,993.3595
2022-08-29T11:23:00.767Z,993.5936
2022-08-29T11:24:00.904Z,993.3294
2022-08-29T11:25:01.053Z,993.3595
2022-08-29T11:26:01.202Z,993.396
2022-08-29T11:27:00.375Z,993.3595
2022-08-29T11:28:00.507Z,993.4774
2022-08-29T11:29:00.657Z,993.5583
2022-08-29T11:30:00.818Z,993.4046
2022-08-29T11:31:00.962Z,993.5211
2022-08-29T11:32:01.150Z,993.424
2022-08-29T11:33:00.298Z,993.4971
2022-08-29T11:34:00.426Z,993.4892
2022-08-29T11:35:00.581Z,993.5479
2022-08-29T11:36:04.986Z,993.5037
2022-08-29T11:37:00.869Z,993.554
2022-08-29T11:38:01.029Z,993.4945
2022-08-29T11:39:01.177Z,993.4796
2022-08-29T11:40:00.385Z,993.3921
2022-08-29T11:41:28.264Z,993.4286
2022-08-29T11:42:00.700Z,993.4209
2022-08-29T11:43:00.785Z,993.3921
2022-08-29T11:44:00.936Z,993.4664
2022-08-29T11:45:01.092Z,993.4743
2022-08-29T11:46:01.268Z,993.5031
2022-08-29T11:47:00.505Z,993.4299
2022-08-29T11:48:00.556Z,993.473